Peshtigo, WI

7:40 PM CDT on March 22, 2017 (GMT -0500)
Tyco Fire Protection | | Change Station
Active Advisory: Special Statement

Elev 617 ft 45.08 °N, 87.64 °W | Updated 4 minutes ago

Partly Cloudy
Partly Cloudy
26.1 °F
Feels Like 26 °F
N
1.0
Wind Variable Wind from SSE
Gusts 19.0 mph

Today
High -- | Low -- °F
--% Chance of Precip.
Yesterday
High -- | Low -- °F
Precip. -- in
Pressure 30.51 in
Visibility 10.0 miles
Clouds Clear
Windchill 26 °F
Dew Point 18 °F
Humidity 70%
Rainfall 0.00 in
Snow Depth Not available.
6:49 AM 7:06 PM
Waning Crescent, 28% visible
METAR KOCQ 230015Z AUTO 10004KT 10SM CLR M03/M08 A3051 RMK AO1 T10301076
Pressure 30.51 in
Visibility 10.0 miles
Clouds Clear
Windchill 26 °F
Dew Point 18 °F
Humidity 70%
Rainfall 0.00 in
Snow Depth Not available.
6:49 AM 7:06 PM
Waning Crescent, 28% visible
METAR KOCQ 230015Z AUTO 10004KT 10SM CLR M03/M08 A3051 RMK AO1 T10301076

Get Your Daily Forecast Email!

Thanks for signing up!

Be on the lookout for a verification email in your inbox.

You'll start receiving severe weather alerts in your inbox..

×

10-Day Weather Forecast

Almanac

Astronomy

Mar. 22, 2017 Rise Set
Actual Time
Civil Twilight
Nautical Twilight
Astronomical Twilight
Moon
Length of Visible Light
Length of Day
Tomorrow will be .
, % of the Moon is Illuminated

Today's Extremes

State Highs State Lows

Community

WunderPhotos

Upload Photos

1,962,540 photos uploaded!

WunderBlog® & News

Nearby

Air Quality

  Air Quality AQ Index Pollutant
Not available.

Snow Depth

Station Depth Elevation

Earthquake Activity

City Distance Mag. Time & Date
Minimum magnitude displayed is 2.5.

Earthquake Activity

City Distance Mag. Time & Date
Minimum magnitude displayed is 2.5.

Coastal Water Temperatures

Place Temperature

Stations

Nearby Weather Stations

Station Location Temp. Windchill Dew Point Humidity Wind Precip. Elev Updated Type
                   

Watches & Warnings

Special Statement
Issued: 3:30 PM CDT Mar. 22, 2017 – National Weather Service

... Icy conditions possible Thursday night and Friday morning...

Rain is expected to move into the area on Thursday afternoon, then
transition to freezing rain Thursday night as temperatures cool.
There remains some uncertainty on whether air temperatures will
fall below freezing, however Road temperatures are likely to be
below freezing during this time, which would result in ice
accumulating on untreated roads and pavements. As much as a tenth
to nearly a quarter of an inch of ice is possible. The best
locations for accumulation are north of a line from Wausau to
Shawano to Oconto.

Anyone with travel plans during this period should monitor the
forecast for updated statements and forecasts.


Klb